createdAt,value
2022-08-30T00:02:02.907Z,19.50
2022-08-30T00:04:30.532Z,19.40
2022-08-30T00:06:58.121Z,19.20
2022-08-30T00:09:25.597Z,19.30
2022-08-30T00:11:53.217Z,19.40
2022-08-30T00:14:20.801Z,19.10
2022-08-30T00:16:48.343Z,19.10
2022-08-30T00:19:15.886Z,18.80
2022-08-30T00:21:43.397Z,18.80
2022-08-30T00:24:10.823Z,19.10
2022-08-30T00:26:38.302Z,19.10
2022-08-30T00:29:05.844Z,19.10
2022-08-30T00:31:33.560Z,19.20
2022-08-30T00:34:01.144Z,19.30
2022-08-30T00:36:29.092Z,19.30
2022-08-30T00:38:56.497Z,19.30
2022-08-30T00:41:24.223Z,19.30
2022-08-30T00:43:52.484Z,19.20
2022-08-30T00:46:20.158Z,19.20
2022-08-30T00:48:50.008Z,19.00
2022-08-30T00:51:18.390Z,18.80
2022-08-30T00:53:51.087Z,18.60
2022-08-30T00:56:19.651Z,18.70
2022-08-30T00:58:54.099Z,18.70
2022-08-30T01:01:21.848Z,18.70
2022-08-30T01:03:50.297Z,18.60
2022-08-30T01:06:18.467Z,18.70
2022-08-30T01:08:47.401Z,18.80
2022-08-30T01:11:19.113Z,18.60
2022-08-30T01:13:47.662Z,18.60
2022-08-30T01:16:15.841Z,18.80
2022-08-30T01:18:43.970Z,18.70
2022-08-30T01:21:37.428Z,18.30
2022-08-30T01:24:06.875Z,18.50
2022-08-30T01:26:36.575Z,18.40
2022-08-30T01:29:10.426Z,18.40
2022-08-30T01:31:38.258Z,18.20
2022-08-30T01:34:07.782Z,18.30
2022-08-30T01:36:44.886Z,18.20
2022-08-30T01:39:16.764Z,18.10
2022-08-30T01:41:45.551Z,18.10
2022-08-30T01:44:14.335Z,18.00
2022-08-30T01:46:45.913Z,17.90
2022-08-30T01:49:16.405Z,18.00
2022-08-30T01:51:44.494Z,17.90
2022-08-30T01:54:12.510Z,18.00
2022-08-30T01:56:40.281Z,18.00
2022-08-30T01:59:08.051Z,18.00
2022-08-30T02:01:37.403Z,17.80
2022-08-30T02:04:06.545Z,17.80
2022-08-30T02:06:34.252Z,17.80
2022-08-30T02:09:03.205Z,17.90
2022-08-30T02:11:30.867Z,17.90
2022-08-30T02:13:58.503Z,17.90
2022-08-30T02:16:26.703Z,17.70
2022-08-30T02:18:57.410Z,17.80
2022-08-30T02:21:27.827Z,17.90
2022-08-30T02:23:56.004Z,17.90
2022-08-30T02:26:24.724Z,18.00
2022-08-30T02:28:53.965Z,18.00
2022-08-30T02:31:23.160Z,18.00
2022-08-30T02:33:54.236Z,18.00
2022-08-30T02:36:22.233Z,17.80
2022-08-30T02:38:50.805Z,17.80
2022-08-30T02:41:20.121Z,17.80
2022-08-30T02:43:47.663Z,17.90
2022-08-30T02:46:15.799Z,17.90
2022-08-30T02:48:44.281Z,18.00
2022-08-30T02:51:13.926Z,17.90
2022-08-30T02:53:43.678Z,17.90
2022-08-30T02:56:13.328Z,17.90
2022-08-30T02:58:42.805Z,17.70
2022-08-30T03:01:13.974Z,17.70
2022-08-30T03:03:43.166Z,17.80
2022-08-30T03:06:11.232Z,17.80
2022-08-30T03:08:39.352Z,17.70
2022-08-30T03:11:06.914Z,17.70
2022-08-30T03:13:34.385Z,17.80
2022-08-30T03:16:02.469Z,17.80
2022-08-30T03:18:30.193Z,17.70
2022-08-30T03:20:57.726Z,17.70
2022-08-30T03:23:25.324Z,17.70
2022-08-30T03:25:53.665Z,17.60
2022-08-30T03:28:21.347Z,17.80
2022-08-30T03:30:48.894Z,17.70
2022-08-30T03:33:18.474Z,17.60
2022-08-30T03:35:48.245Z,17.50
2022-08-30T03:38:15.980Z,17.40
2022-08-30T03:40:43.951Z,17.50
2022-08-30T03:43:12.032Z,17.60
2022-08-30T03:45:40.788Z,17.60
2022-08-30T03:48:08.690Z,17.60
2022-08-30T03:50:37.097Z,17.50
2022-08-30T03:53:04.660Z,17.40
2022-08-30T03:55:32.560Z,17.50
2022-08-30T03:58:00.066Z,17.40
2022-08-30T04:00:28.624Z,17.50
2022-08-30T04:02:56.437Z,17.40
2022-08-30T04:05:24.035Z,17.30
2022-08-30T04:07:52.252Z,17.30
2022-08-30T04:10:21.616Z,17.40
2022-08-30T04:12:50.591Z,17.50
2022-08-30T04:15:20.181Z,17.50
2022-08-30T04:17:48.802Z,17.60
2022-08-30T04:20:17.187Z,17.50
2022-08-30T04:22:44.730Z,17.60
2022-08-30T04:25:15.634Z,17.60
2022-08-30T04:27:45.607Z,17.60
2022-08-30T04:30:15.199Z,17.60
2022-08-30T04:32:43.760Z,17.70
2022-08-30T04:35:12.416Z,17.70
2022-08-30T04:37:39.961Z,17.70
2022-08-30T04:40:08.455Z,17.70
2022-08-30T04:42:36.923Z,17.70
2022-08-30T04:45:07.919Z,17.70
2022-08-30T04:47:35.645Z,17.70
2022-08-30T04:50:04.164Z,17.70
2022-08-30T04:52:31.842Z,17.70
2022-08-30T04:55:00.008Z,17.70
2022-08-30T04:57:28.297Z,17.70
2022-08-30T04:59:56.047Z,17.70
2022-08-30T05:02:24.289Z,17.70
2022-08-30T05:05:10.142Z,17.70
2022-08-30T05:07:38.047Z,17.60
2022-08-30T05:10:10.471Z,17.60
2022-08-30T05:12:39.288Z,17.60
2022-08-30T05:15:07.376Z,17.60
2022-08-30T05:17:34.949Z,17.60
2022-08-30T05:20:03.434Z,17.70
2022-08-30T05:22:31.051Z,17.70
2022-08-30T05:24:59.511Z,17.70
2022-08-30T05:27:27.064Z,17.70
2022-08-30T05:29:55.763Z,17.70
2022-08-30T05:32:23.597Z,17.70
2022-08-30T05:34:51.406Z,17.40
2022-08-30T05:37:19.075Z,17.40
2022-08-30T05:39:51.169Z,17.50
2022-08-30T05:42:20.203Z,17.60
2022-08-30T05:44:52.888Z,17.60
2022-08-30T05:47:21.705Z,17.70
2022-08-30T05:49:49.733Z,17.70
2022-08-30T05:52:18.527Z,17.60
2022-08-30T05:54:47.105Z,17.60
2022-08-30T05:57:14.873Z,17.60
2022-08-30T05:59:42.894Z,17.60
2022-08-30T06:02:10.768Z,17.60
2022-08-30T06:04:38.685Z,17.70
2022-08-30T06:07:06.416Z,17.70
2022-08-30T06:09:34.068Z,17.70
2022-08-30T06:12:01.781Z,17.70
2022-08-30T06:14:29.331Z,17.50
2022-08-30T06:16:57.779Z,17.40
2022-08-30T06:19:25.270Z,17.40
2022-08-30T06:21:52.867Z,17.60
2022-08-30T06:24:27.775Z,17.70
2022-08-30T06:27:03.720Z,17.70
2022-08-30T06:29:31.310Z,17.70
2022-08-30T06:31:59.374Z,17.70
2022-08-30T06:34:28.306Z,17.80
2022-08-30T06:36:55.880Z,17.80
2022-08-30T06:39:23.393Z,17.80
2022-08-30T06:41:51.343Z,17.80
2022-08-30T06:44:28.457Z,17.80
2022-08-30T06:46:57.806Z,17.80
2022-08-30T06:49:25.407Z,17.80
2022-08-30T06:51:54.222Z,17.80
2022-08-30T06:54:21.871Z,17.60
2022-08-30T06:56:58.261Z,17.40
2022-08-30T06:59:27.288Z,17.40
2022-08-30T07:01:56.221Z,17.50
2022-08-30T07:04:24.520Z,17.60
2022-08-30T07:06:52.031Z,17.70
2022-08-30T07:09:19.926Z,17.70
2022-08-30T07:11:51.733Z,17.60
2022-08-30T07:14:20.778Z,17.50
2022-08-30T07:16:51.093Z,17.30
2022-08-30T07:19:20.931Z,17.40
2022-08-30T07:21:49.788Z,17.50
2022-08-30T07:24:18.355Z,17.60
2022-08-30T07:26:49.959Z,17.70
2022-08-30T07:29:18.234Z,17.60
2022-08-30T07:31:45.814Z,17.70
2022-08-30T07:34:13.327Z,17.70
2022-08-30T07:36:40.962Z,17.80
2022-08-30T07:39:10.027Z,17.80
2022-08-30T07:41:39.145Z,17.80
2022-08-30T07:44:08.361Z,17.80
2022-08-30T07:46:37.743Z,17.80
2022-08-30T07:49:11.313Z,17.60
2022-08-30T07:51:41.230Z,17.60
2022-08-30T07:54:09.075Z,17.60
2022-08-30T07:56:36.735Z,17.60
2022-08-30T07:59:04.951Z,17.70
2022-08-30T08:01:32.703Z,17.70
2022-08-30T08:04:00.154Z,17.70
2022-08-30T08:06:34.995Z,17.70
2022-08-30T08:09:02.881Z,17.70
2022-08-30T08:11:33.599Z,17.80
2022-08-30T08:14:02.490Z,17.80
2022-08-30T08:16:32.884Z,17.80
2022-08-30T08:19:00.833Z,17.80
2022-08-30T08:21:28.903Z,17.80
2022-08-30T08:23:58.709Z,17.80
2022-08-30T08:26:26.191Z,17.90
2022-08-30T08:28:53.922Z,17.80
2022-08-30T08:31:31.458Z,17.90
2022-08-30T08:34:03.464Z,17.90
2022-08-30T08:36:32.286Z,17.90
2022-08-30T08:39:00.649Z,17.90
2022-08-30T08:41:49.365Z,17.90
2022-08-30T08:44:35.326Z,17.80
2022-08-30T08:47:29.599Z,17.80
2022-08-30T08:50:01.691Z,17.90
2022-08-30T08:53:25.060Z,17.90
2022-08-30T08:55:58.750Z,17.80
2022-08-30T08:58:43.394Z,17.80
2022-08-30T09:01:12.587Z,17.80
2022-08-30T09:03:40.518Z,17.90
2022-08-30T09:06:19.661Z,17.90
2022-08-30T09:08:47.474Z,18.00
2022-08-30T09:11:26.059Z,17.90
2022-08-30T09:13:55.124Z,18.00
2022-08-30T09:16:51.772Z,18.00
2022-08-30T09:19:55.531Z,17.90
2022-08-30T09:22:33.466Z,17.90
2022-08-30T09:25:01.010Z,18.00
2022-08-30T09:27:36.879Z,18.00
2022-08-30T09:30:11.285Z,18.10
2022-08-30T09:32:59.014Z,18.00
2022-08-30T09:35:37.169Z,18.00
2022-08-30T09:38:20.822Z,18.00
2022-08-30T09:40:57.102Z,18.10
2022-08-30T09:43:30.082Z,18.10
2022-08-30T09:46:00.856Z,18.10
2022-08-30T09:48:37.993Z,18.10
2022-08-30T09:51:34.534Z,18.10
2022-08-30T09:54:26.988Z,18.20
2022-08-30T09:57:16.819Z,18.20
2022-08-30T09:59:49.563Z,18.20
2022-08-30T10:02:28.724Z,18.20
2022-08-30T10:05:08.036Z,18.30
2022-08-30T10:08:02.140Z,18.30
2022-08-30T10:10:45.223Z,18.30
2022-08-30T10:13:33.640Z,18.40
2022-08-30T10:16:30.178Z,18.40
2022-08-30T10:19:13.261Z,18.50
2022-08-30T10:22:01.671Z,18.50
2022-08-30T10:24:43.955Z,18.60
2022-08-30T10:27:27.021Z,18.50
2022-08-30T10:30:08.571Z,18.50
2022-08-30T10:32:52.603Z,18.50
2022-08-30T10:35:38.527Z,18.50
2022-08-30T10:38:12.731Z,18.50
2022-08-30T10:41:05.431Z,18.60
2022-08-30T10:43:58.695Z,18.70
2022-08-30T10:46:49.169Z,18.70
2022-08-30T10:49:21.903Z,18.70
2022-08-30T10:51:59.198Z,18.80
2022-08-30T10:54:43.135Z,18.80
2022-08-30T10:57:11.263Z,18.80
2022-08-30T10:59:46.904Z,18.90
2022-08-30T11:02:57.098Z,19.10
2022-08-30T11:06:00.722Z,19.10
2022-08-30T11:08:37.132Z,19.20
2022-08-30T11:11:29.996Z,19.40
2022-08-30T11:14:05.640Z,19.60
2022-08-30T11:16:48.441Z,19.70
2022-08-30T11:19:32.089Z,19.60
2022-08-30T11:22:21.909Z,19.70
2022-08-30T11:25:11.884Z,19.80
2022-08-30T11:27:49.039Z,19.70
2022-08-30T11:30:26.760Z,19.80
2022-08-30T11:33:13.198Z,19.90
2022-08-30T11:35:52.697Z,20.00
2022-08-30T11:38:26.434Z,19.90
2022-08-30T11:40:57.963Z,19.80
2022-08-30T11:43:34.787Z,19.60
2022-08-30T11:46:37.809Z,19.60
2022-08-30T11:49:13.381Z,19.60
2022-08-30T11:52:26.361Z,19.40
2022-08-30T11:55:03.896Z,19.40
2022-08-30T11:58:08.020Z,19.40
2022-08-30T12:00:51.546Z,19.30
2022-08-30T12:03:22.059Z,19.30
2022-08-30T12:05:54.582Z,19.30
2022-08-30T12:08:34.385Z,19.30
2022-08-30T12:11:13.187Z,19.30
2022-08-30T12:13:43.413Z,19.30
2022-08-30T12:16:14.257Z,19.30
2022-08-30T12:18:47.775Z,19.30
2022-08-30T12:21:18.635Z,19.30
2022-08-30T12:24:10.620Z,19.30
2022-08-30T12:26:44.596Z,19.30
2022-08-30T12:29:15.204Z,19.30
2022-08-30T12:31:58.160Z,19.20
2022-08-30T12:34:41.545Z,19.30
2022-08-30T12:37:42.146Z,19.30
2022-08-30T12:40:19.983Z,19.30
2022-08-30T12:42:58.070Z,19.40
2022-08-30T12:45:31.613Z,19.40
2022-08-30T12:48:01.836Z,19.40
2022-08-30T12:50:38.105Z,19.40
2022-08-30T12:53:14.092Z,19.30
2022-08-30T12:56:00.409Z,19.30
2022-08-30T12:58:41.107Z,19.20
2022-08-30T13:01:37.536Z,19.10
2022-08-30T13:04:28.184Z,19.10
2022-08-30T13:07:03.672Z,19.00
2022-08-30T13:09:37.005Z,19.10
2022-08-30T13:12:26.446Z,19.00
2022-08-30T13:15:09.167Z,19.10
2022-08-30T13:17:36.754Z,19.00
2022-08-30T13:20:16.303Z,19.00
2022-08-30T13:23:07.384Z,18.90
2022-08-30T13:25:38.563Z,18.90
2022-08-30T13:28:07.757Z,18.80
2022-08-30T13:30:36.114Z,18.70
2022-08-30T13:33:03.663Z,18.70
2022-08-30T13:35:32.750Z,18.80
2022-08-30T13:38:02.846Z,18.90
2022-08-30T13:40:30.789Z,18.90
2022-08-30T13:42:58.699Z,18.80
2022-08-30T13:45:42.242Z,18.50
2022-08-30T13:48:11.739Z,18.50
2022-08-30T13:50:39.765Z,18.50
2022-08-30T13:53:09.504Z,18.40
2022-08-30T13:55:40.594Z,18.50
2022-08-30T13:58:09.556Z,18.30
2022-08-30T14:00:38.452Z,18.30
2022-08-30T14:03:06.442Z,18.30
2022-08-30T14:06:04.688Z,18.40
2022-08-30T14:08:48.798Z,18.40
2022-08-30T14:11:20.901Z,18.20
2022-08-30T14:16:40.628Z,18.10
2022-08-30T14:19:09.992Z,18.10
2022-08-30T14:21:37.531Z,18.20
2022-08-30T14:24:06.762Z,18.30
2022-08-30T14:26:40.161Z,18.20
2022-08-30T14:29:10.871Z,18.20
2022-08-30T14:31:40.282Z,18.10
2022-08-30T14:34:09.353Z,18.20
2022-08-30T14:36:41.797Z,18.20
2022-08-30T14:39:14.733Z,18.20
2022-08-30T14:41:48.397Z,18.30
2022-08-30T14:44:18.077Z,18.20
2022-08-30T14:46:45.901Z,18.10
2022-08-30T14:49:14.989Z,18.00
2022-08-30T14:51:43.685Z,18.00
2022-08-30T14:54:11.437Z,18.10
2022-08-30T14:56:40.154Z,18.00
2022-08-30T14:59:08.021Z,17.90
2022-08-30T15:01:37.945Z,18.00
2022-08-30T15:04:07.705Z,18.10
2022-08-30T15:06:37.540Z,18.10
2022-08-30T15:09:07.485Z,18.10
2022-08-30T15:11:35.782Z,18.00
2022-08-30T15:14:03.457Z,17.90
2022-08-30T15:16:34.121Z,17.90
2022-08-30T15:19:03.777Z,17.90
2022-08-30T15:21:35.198Z,17.90
2022-08-30T15:24:04.960Z,17.80
2022-08-30T15:26:32.593Z,17.70
2022-08-30T15:29:00.149Z,17.70
2022-08-30T15:31:29.125Z,17.50
2022-08-30T15:33:57.290Z,17.50
2022-08-30T15:36:25.780Z,17.50
2022-08-30T15:38:57.118Z,17.40
2022-08-30T15:41:24.785Z,17.50
2022-08-30T15:43:53.105Z,17.50
2022-08-30T15:46:29.673Z,17.50
2022-08-30T15:49:01.558Z,17.50
2022-08-30T15:51:30.766Z,17.50
2022-08-30T15:54:07.017Z,17.40
2022-08-30T15:56:35.722Z,17.50
2022-08-30T15:59:03.238Z,17.40
2022-08-30T16:01:31.083Z,17.20
2022-08-30T16:04:02.410Z,17.20
2022-08-30T16:06:37.432Z,17.20
2022-08-30T16:09:09.308Z,17.20
2022-08-30T16:11:38.124Z,17.10
2022-08-30T16:14:06.595Z,17.10
2022-08-30T16:16:37.848Z,17.10
2022-08-30T16:19:07.996Z,17.20
2022-08-30T16:21:40.164Z,17.20
2022-08-30T16:24:10.507Z,17.20
2022-08-30T16:26:42.174Z,17.20
2022-08-30T16:29:10.253Z,17.20
2022-08-30T16:31:38.680Z,17.20
2022-08-30T16:34:07.096Z,17.20
2022-08-30T16:36:36.148Z,17.20
2022-08-30T16:39:08.441Z,17.20
2022-08-30T16:41:37.555Z,17.10
2022-08-30T16:44:06.480Z,17.10
2022-08-30T16:46:36.596Z,17.00
2022-08-30T16:49:05.586Z,16.90
2022-08-30T16:51:37.646Z,16.70
2022-08-30T16:54:07.624Z,16.60
2022-08-30T16:56:36.839Z,16.60
2022-08-30T16:59:10.964Z,16.50
2022-08-30T17:01:39.592Z,16.50
2022-08-30T17:04:08.416Z,16.40
2022-08-30T17:06:36.980Z,16.30
2022-08-30T17:09:06.371Z,16.40
2022-08-30T17:11:38.272Z,16.40
2022-08-30T17:14:08.845Z,16.50
2022-08-30T17:16:38.574Z,16.50
2022-08-30T17:19:09.437Z,16.50
2022-08-30T17:21:36.964Z,16.30
2022-08-30T17:24:08.108Z,16.30
2022-08-30T17:26:37.578Z,16.10
2022-08-30T17:29:06.408Z,16.10
2022-08-30T17:31:35.555Z,16.00
2022-08-30T17:34:05.950Z,15.70
2022-08-30T17:36:36.695Z,15.70
2022-08-30T17:39:11.464Z,15.80
2022-08-30T17:41:49.708Z,15.90
2022-08-30T17:44:28.793Z,16.00
2022-08-30T17:46:57.959Z,15.90
2022-08-30T17:49:27.549Z,15.80
2022-08-30T17:51:56.932Z,15.90
2022-08-30T17:54:26.800Z,15.80
2022-08-30T17:56:55.690Z,15.50
2022-08-30T17:59:25.750Z,15.40
2022-08-30T18:01:55.469Z,15.40
2022-08-30T18:04:24.889Z,15.40
2022-08-30T18:06:53.417Z,15.20
2022-08-30T18:09:21.984Z,15.40
2022-08-30T18:11:50.538Z,15.40
2022-08-30T18:14:18.848Z,15.40
2022-08-30T18:16:53.644Z,15.40
2022-08-30T18:19:24.218Z,15.40
2022-08-30T18:21:52.957Z,15.60
2022-08-30T18:24:21.107Z,15.40
2022-08-30T18:26:49.128Z,15.40
2022-08-30T18:29:26.332Z,15.40
2022-08-30T18:32:01.586Z,15.40
2022-08-30T18:34:29.887Z,15.30
2022-08-30T18:36:57.833Z,15.10
2022-08-30T18:39:26.415Z,15.10
2022-08-30T18:41:55.602Z,15.10
2022-08-30T18:44:29.138Z,15.20
2022-08-30T18:47:00.347Z,15.20
2022-08-30T18:49:32.295Z,15.00
2022-08-30T18:52:01.738Z,15.00
2022-08-30T18:54:29.918Z,15.00
2022-08-30T18:56:57.624Z,14.90
2022-08-30T18:59:35.463Z,15.00
2022-08-30T19:02:06.422Z,15.10
2022-08-30T19:04:35.026Z,15.10
2022-08-30T19:07:06.194Z,15.00
2022-08-30T19:09:33.894Z,15.10
2022-08-30T19:12:01.369Z,15.10
2022-08-30T19:14:29.170Z,15.00
2022-08-30T19:16:57.072Z,15.00
2022-08-30T19:19:24.832Z,14.80
2022-08-30T19:21:53.589Z,14.70
2022-08-30T19:24:21.707Z,14.80
2022-08-30T19:26:49.318Z,14.90
2022-08-30T19:29:16.948Z,14.70
2022-08-30T19:31:44.508Z,14.70
2022-08-30T19:34:12.547Z,14.50
2022-08-30T19:36:40.246Z,14.30
2022-08-30T19:39:08.663Z,14.60
2022-08-30T19:41:37.722Z,14.70
2022-08-30T19:44:06.311Z,14.80
2022-08-30T19:46:34.282Z,14.70
2022-08-30T19:49:05.011Z,14.50
2022-08-30T19:51:33.613Z,14.40
2022-08-30T19:54:01.265Z,14.40
2022-08-30T19:56:29.126Z,14.40
2022-08-30T19:58:57.167Z,14.30
2022-08-30T20:01:33.541Z,14.20
2022-08-30T20:04:02.459Z,14.30
2022-08-30T20:06:31.204Z,14.30
2022-08-30T20:09:00.428Z,14.10
2022-08-30T20:11:28.894Z,14.10
2022-08-30T20:13:57.224Z,14.20
2022-08-30T20:16:33.214Z,14.30
2022-08-30T20:19:07.231Z,14.20
2022-08-30T20:21:36.083Z,14.30
2022-08-30T20:24:04.779Z,14.30
2022-08-30T20:26:37.803Z,14.20
2022-08-30T20:29:07.520Z,14.10
2022-08-30T20:31:36.320Z,14.10
2022-08-30T20:34:04.925Z,14.20
2022-08-30T20:36:33.895Z,14.30
2022-08-30T20:39:02.398Z,14.30
2022-08-30T20:41:30.881Z,14.20
2022-08-30T20:43:58.577Z,14.10
2022-08-30T20:46:29.527Z,14.10
2022-08-30T20:49:01.771Z,14.00
2022-08-30T20:51:29.405Z,14.10
2022-08-30T20:53:57.762Z,13.90
2022-08-30T20:56:28.011Z,13.90
2022-08-30T20:58:56.073Z,14.00
2022-08-30T21:01:23.860Z,14.00
2022-08-30T21:03:51.459Z,14.10
2022-08-30T21:06:18.930Z,14.10
2022-08-30T21:08:46.483Z,14.10
2022-08-30T21:11:14.953Z,14.10
2022-08-30T21:13:42.502Z,14.00
2022-08-30T21:16:09.936Z,14.00
2022-08-30T21:18:40.169Z,14.00
2022-08-30T21:21:22.478Z,13.90
2022-08-30T21:23:50.827Z,13.90
2022-08-30T21:26:19.475Z,13.80
2022-08-30T21:28:52.116Z,13.60
2022-08-30T21:31:25.111Z,13.70
2022-08-30T21:33:54.645Z,13.60
2022-08-30T21:36:42.778Z,13.70
2022-08-30T21:39:11.614Z,13.70
2022-08-30T21:41:39.840Z,13.60
2022-08-30T21:44:13.943Z,13.40
2022-08-30T21:46:42.450Z,13.50
2022-08-30T21:49:11.907Z,13.40
2022-08-30T21:51:42.033Z,13.30
2022-08-30T21:54:11.232Z,13.40
2022-08-30T21:56:41.058Z,13.50
2022-08-30T21:59:10.599Z,13.60
2022-08-30T22:01:39.065Z,13.30
2022-08-30T22:04:10.267Z,13.40
2022-08-30T22:06:39.902Z,13.30
2022-08-30T22:09:10.897Z,13.20
2022-08-30T22:11:38.911Z,13.30
2022-08-30T22:14:07.269Z,13.50
2022-08-30T22:16:36.845Z,13.50
2022-08-30T22:19:04.791Z,13.60
2022-08-30T22:21:34.789Z,13.60
2022-08-30T22:24:02.658Z,13.50
2022-08-30T22:26:32.303Z,13.40
2022-08-30T22:28:59.815Z,13.50
2022-08-30T22:31:27.720Z,13.60
2022-08-30T22:33:55.686Z,13.60
2022-08-30T22:36:32.338Z,13.70
2022-08-30T22:39:02.217Z,13.60
2022-08-30T22:41:34.181Z,13.60
2022-08-30T22:44:02.510Z,13.60
2022-08-30T22:46:34.282Z,13.60
2022-08-30T22:49:04.310Z,13.70
2022-08-30T22:51:32.236Z,13.70
2022-08-30T22:54:01.426Z,13.70
2022-08-30T22:56:29.723Z,13.60
2022-08-30T22:58:57.538Z,13.60
2022-08-30T23:01:29.988Z,13.60
2022-08-30T23:04:01.352Z,13.50
2022-08-30T23:06:30.173Z,13.60
2022-08-30T23:08:58.066Z,13.60
2022-08-30T23:11:26.125Z,13.60
2022-08-30T23:13:54.179Z,13.60
2022-08-30T23:16:22.196Z,13.60
2022-08-30T23:18:50.151Z,13.60
2022-08-30T23:21:24.280Z,13.50
2022-08-30T23:24:11.874Z,13.50
2022-08-30T23:26:58.955Z,13.50
2022-08-30T23:29:44.811Z,13.40
2022-08-30T23:32:31.511Z,13.50
2022-08-30T23:35:17.355Z,13.60
2022-08-30T23:38:03.252Z,13.60
2022-08-30T23:40:49.600Z,13.50
2022-08-30T23:43:35.500Z,13.50
2022-08-30T23:46:21.378Z,13.50
2022-08-30T23:49:09.343Z,13.50
2022-08-30T23:51:56.877Z,13.50
2022-08-30T23:54:43.768Z,13.50
2022-08-30T23:57:29.801Z,13.50
